This is the latest recevied weather packets stored in our database for station/object KC3SOZ. If no packets are shown the sender has not sent any weather packets the latest 10 day(s).
| Time | Temp. | Humidity | Pressure | Rain* | Wind** | Luminosity | Snow |
|---|---|---|---|---|---|---|---|
| 1778219347 | 7.22° C | 88% | 1013.5 hPa | 0 mm | - | 0 W/m² | - |
| 1778219045 | 7.22° C | 87% | 1013.5 hPa | 0 mm | - | 0 W/m² | - |
| 1778218741 | 7.78° C | 86% | 1013.4 hPa | 0 mm | - | 0 W/m² | - |
| 1778218439 | 7.78° C | 86% | 1013.3 hPa | 0 mm | - | 0 W/m² | - |
| 1778218136 | 7.78° C | 86% | 1013.5 hPa | 0 mm | - | 0 W/m² | - |
| 1778217834 | 7.78° C | 86% | 1013.3 hPa | 0 mm | - | 0 W/m² | - |
| 1778217529 | 7.78° C | 86% | 1013.5 hPa | 0 mm | - | 0 W/m² | - |
| 1778217225 | 7.78° C | 86% | 1013.7 hPa | 0 mm | - | 0 W/m² | - |
| 1778216921 | 7.78° C | 86% | 1013.5 hPa | 0 mm | - | 0 W/m² | - |
| 1778216619 | 7.78° C | 86% | 1013.6 hPa | 0 mm | - | 0 W/m² | - |
| 1778216314 | 7.78° C | 85% | 1013.1 hPa | 0 mm | - | 0 W/m² | - |
| 1778216012 | 8.33° C | 85% | 1013 hPa | 0 mm | - | 0 W/m² | - |
| 1778215710 | 8.33° C | 83% | 1013.2 hPa | 0 mm | - | 0 W/m² | - |
| 1778215406 | 8.33° C | 82% | 1013.1 hPa | 0 mm | - | 0 W/m² | - |
| 1778215102 | 8.89° C | 81% | 1013.1 hPa | 0 mm | - | 0 W/m² | - |
| 1778214800 | 8.89° C | 80% | 1012.7 hPa | 0 mm | - | 0 W/m² | - |
| 1778214496 | 9.44° C | 80% | 1013 hPa | 0 mm | - | 0 W/m² | - |
| 1778214194 | 9.44° C | 79% | 1013.1 hPa | 0 mm | - | 0 W/m² | - |
| 1778213890 | 10° C | 78% | 1012.7 hPa | 0 mm | - | 0 W/m² | - |
| 1778213587 | 10° C | 78% | 1012.8 hPa | 1.78 mm | - | 0 W/m² | - |
| 1778213283 | 10° C | 77% | 1012.4 hPa | 1.78 mm | - | 0 W/m² | - |
| 1778212981 | 11.11° C | 74% | 1012.5 hPa | 0 mm | - | 0 W/m² | - |
| 1778212678 | 10.56° C | 69% | 1012.4 hPa | 0 mm | - | 0 W/m² | - |
| 1778212375 | 10.56° C | 74% | 1011.1 hPa | 0 mm | - | 0 W/m² | - |
| 1778212072 | 10.56° C | 71% | 1011.2 hPa | 0 mm | - | 0 W/m² | - |
* Rain latest hour (hover to see other rain measurements)
** Current wind speed in m/s (hover to see current wind gust speed)